Time;durP1;ratioP1;P1;durP2;ratioP2;P2;SDS_P1;SDS_P2;PMS_P1;PMS_P2;Temp;Humidity;BMP_temperature;BMP_pressure;BME280_temperature;BME280_humidity;BME280_pressure;Samples;Min_cycle;Max_cycle;Signal;HPM_P1;HPM_P2
2023/04/08 00:00:10;;;;;;;2.25;1.67;;;17.90;52.30;;;;;;4992263;28;20271;-51
2023/04/08 00:02:41;;;;;;;2.55;1.85;;;17.90;52.30;;;;;;4992468;28;20225;-52
2023/04/08 00:05:13;;;;;;;2.42;1.60;;;17.90;52.30;;;;;;4997918;28;20250;-54
2023/04/08 00:07:44;;;;;;;2.20;1.48;;;18.00;52.40;;;;;;5008240;28;20654;-51
2023/04/08 00:10:15;;;;;;;2.25;1.50;;;18.00;52.30;;;;;;5011643;28;20592;-52
2023/04/08 00:12:45;;;;;;;2.45;1.48;;;18.00;52.30;;;;;;5011549;28;20900;-52
2023/04/08 00:15:16;;;;;;;2.70;1.80;;;18.00;52.90;;;;;;5008861;28;20567;-51
2023/04/08 00:17:47;;;;;;;2.90;1.50;;;18.00;52.30;;;;;;5014551;28;20231;-55
2023/04/08 00:20:19;;;;;;;2.85;1.80;;;18.00;52.30;;;;;;5015130;28;20208;-49
2023/04/08 00:22:50;;;;;;;2.35;1.67;;;18.00;52.30;;;;;;5014759;28;20217;-50
2023/04/08 00:25:20;;;;;;;2.50;1.58;;;18.00;52.30;;;;;;5015359;28;20197;-52
2023/04/08 00:27:51;;;;;;;3.10;1.83;;;18.00;52.30;;;;;;5015662;28;20201;-51
2023/04/08 00:30:22;;;;;;;2.55;1.75;;;18.00;52.30;;;;;;5015295;28;20681;-49
2023/04/08 00:32:53;;;;;;;3.50;2.28;;;18.10;52.30;;;;;;5015349;28;20256;-49
2023/04/08 00:35:25;;;;;;;2.47;1.85;;;18.10;52.30;;;;;;5014775;28;20204;-55
2023/04/08 00:37:56;;;;;;;2.13;1.77;;;18.10;52.30;;;;;;5015030;28;20220;-53
2023/04/08 00:40:26;;;;;;;2.85;1.60;;;18.10;52.30;;;;;;5015293;28;20201;-49
2023/04/08 00:42:59;;;;;;;2.60;1.77;;;18.10;52.30;;;;;;5015355;28;20228;-50
2023/04/08 00:45:30;;;;;;;2.70;2.03;;;18.10;52.30;;;;;;5015060;28;20208;-50
2023/04/08 00:48:01;;;;;;;3.08;1.92;;;18.10;52.30;;;;;;5014942;28;20216;-54
2023/04/08 00:50:33;;;;;;;3.08;2.17;;;18.10;52.30;;;;;;5013806;28;20649;-51
2023/04/08 00:53:04;;;;;;;3.45;2.35;;;18.20;52.30;;;;;;4995261;28;20647;-51
2023/04/08 00:55:34;;;;;;;3.63;2.45;;;18.20;52.30;;;;;;4995168;28;20284;-54
2023/04/08 00:58:05;;;;;;;5.00;3.20;;;18.20;52.30;;;;;;4995108;28;20693;-51
2023/04/08 01:00:38;;;;;;;5.28;3.13;;;18.20;52.20;;;;;;4995331;28;20223;-53
2023/04/08 01:03:16;;;;;;;6.05;4.15;;;18.20;52.20;;;;;;4995349;28;20217;-51
2023/04/08 01:05:58;;;;;;;6.32;4.55;;;18.20;52.20;;;;;;5005701;28;20211;-51
2023/04/08 01:08:30;;;;;;;6.65;4.13;;;18.20;52.20;;;;;;5012192;28;20196;-52
2023/04/08 01:11:03;;;;;;;7.00;4.28;;;18.20;52.20;;;;;;5013823;28;20613;-54
2023/04/08 01:13:38;;;;;;;6.20;4.57;;;18.20;52.20;;;;;;5014483;28;20203;-53
2023/04/08 01:16:11;;;;;;;6.15;4.25;;;18.20;52.20;;;;;;5014575;28;20199;-53
2023/04/08 01:18:42;;;;;;;7.03;4.50;;;18.20;52.10;;;;;;5011483;28;20219;-54
2023/04/08 01:21:16;;;;;;;6.15;4.30;;;18.30;52.20;;;;;;5013782;28;20219;-51
2023/04/08 01:23:58;;;;;;;7.20;4.70;;;18.30;52.20;;;;;;5014520;28;20212;-51
2023/04/08 01:26:32;;;;;;;6.38;4.53;;;18.30;52.20;;;;;;5014428;28;20209;-54
2023/04/08 01:29:05;;;;;;;6.18;4.82;;;18.30;52.20;;;;;;5013592;28;20603;-53
2023/04/08 01:31:38;;;;;;;6.18;4.30;;;18.30;52.20;;;;;;5014170;28;20216;-48
2023/04/08 01:34:09;;;;;;;7.38;5.00;;;18.30;52.20;;;;;;5014362;28;20193;-51
2023/04/08 01:36:41;;;;;;;5.78;4.57;;;18.30;52.10;;;;;;5013029;28;20221;-54
2023/04/08 01:39:12;;;;;;;6.13;4.32;;;18.30;52.10;;;;;;5013636;28;20251;-55
2023/04/08 01:41:45;;;;;;;7.38;5.00;;;18.30;52.10;;;;;;5014290;28;20224;-56
2023/04/08 01:44:18;;;;;;;6.63;4.78;;;18.30;52.10;;;;;;5014008;28;20259;-55
2023/04/08 01:46:49;;;;;;;5.53;4.47;;;18.30;52.10;;;;;;5014072;28;20208;-54
2023/04/08 01:49:20;;;;;;;6.85;5.30;;;18.40;52.10;;;;;;5014248;28;20205;-52
2023/04/08 01:51:53;;;;;;;7.93;5.35;;;18.40;52.10;;;;;;5013481;28;20220;-53
2023/04/08 01:54:23;;;;;;;6.57;4.55;;;18.30;52.10;;;;;;5013690;28;20561;-54
2023/04/08 01:56:58;;;;;;;6.13;4.60;;;18.40;52.10;;;;;;5013517;28;20228;-54
2023/04/08 01:59:33;;;;;;;6.55;4.72;;;18.40;52.00;;;;;;5012264;28;20196;-53
2023/04/08 02:02:07;;;;;;;6.60;4.72;;;18.40;52.10;;;;;;5001708;28;20302;-55
2023/04/08 02:04:37;;;;;;;6.22;4.40;;;18.40;52.00;;;;;;4995106;28;20198;-56
2023/04/08 02:07:08;;;;;;;5.85;4.22;;;18.40;52.00;;;;;;5013037;28;20669;-55
2023/04/08 02:09:39;;;;;;;5.10;4.13;;;18.40;52.00;;;;;;5013510;28;20201;-54
2023/04/08 02:12:11;;;;;;;5.70;4.22;;;18.40;52.00;;;;;;5013373;28;20220;-54
2023/04/08 02:14:42;;;;;;;6.32;4.30;;;18.40;52.00;;;;;;5013376;28;20200;-52
2023/04/08 02:17:15;;;;;;;6.00;4.50;;;18.40;52.00;;;;;;5012781;28;20228;-53
2023/04/08 02:19:49;;;;;;;4.93;3.80;;;18.40;52.00;;;;;;5013109;28;20556;-54
2023/04/08 02:22:25;;;;;;;5.00;4.07;;;18.50;52.00;;;;;;5013267;28;20224;-50
2023/04/08 02:24:57;;;;;;;5.50;4.43;;;18.50;52.00;;;;;;5013422;28;20228;-53
2023/04/08 02:27:31;;;;;;;5.25;4.15;;;18.50;51.90;;;;;;5013065;28;20220;-54
2023/04/08 02:30:02;;;;;;;4.85;3.85;;;18.50;51.90;;;;;;5013101;28;20208;-54
2023/04/08 02:32:34;;;;;;;5.15;4.25;;;18.50;51.90;;;;;;5012843;28;20225;-51
2023/04/08 02:35:05;;;;;;;5.72;4.20;;;18.50;51.90;;;;;;5013045;28;20208;-53
2023/04/08 02:37:36;;;;;;;5.00;4.03;;;18.50;51.80;;;;;;5012763;28;20232;-53
2023/04/08 02:40:23;;;;;;;6.53;4.38;;;18.50;51.80;;;;;;5012079;28;20675;-53
2023/04/08 02:42:56;;;;;;;5.45;4.05;;;18.50;51.80;;;;;;5000521;28;20229;-54
2023/04/08 02:45:29;;;;;;;5.32;3.90;;;18.50;51.80;;;;;;4993490;28;20236;-53
2023/04/08 02:48:00;;;;;;;5.38;4.43;;;18.50;51.80;;;;;;4992982;28;20201;-51
2023/04/08 02:50:30;;;;;;;4.78;3.63;;;18.50;51.80;;;;;;4992374;28;20197;-56
2023/04/08 02:53:01;;;;;;;5.00;3.95;;;18.50;51.80;;;;;;4990745;28;20217;-53
2023/04/08 02:55:32;;;;;;;5.50;4.30;;;18.50;51.80;;;;;;4992752;28;20198;-52
2023/04/08 02:58:04;;;;;;;4.88;4.07;;;18.50;51.80;;;;;;4993139;28;20232;-53
2023/04/08 03:00:36;;;;;;;4.43;3.85;;;18.60;51.80;;;;;;4993052;28;20266;-54
2023/04/08 03:03:07;;;;;;;4.70;3.47;;;18.60;51.80;;;;;;4993123;28;20223;-53
2023/04/08 03:05:37;;;;;;;3.75;3.40;;;18.60;51.70;;;;;;5002378;28;20283;-57
2023/04/08 03:08:08;;;;;;;4.78;3.78;;;18.60;51.70;;;;;;5012071;28;20258;-56
2023/04/08 03:10:39;;;;;;;5.07;3.40;;;18.60;52.30;;;;;;5012150;28;20197;-53
2023/04/08 03:13:11;;;;;;;3.75;3.08;;;18.60;51.70;;;;;;5012019;28;20224;-56
2023/04/08 03:15:42;;;;;;;3.78;3.28;;;18.60;51.60;;;;;;5009059;28;20189;-52
2023/04/08 03:18:12;;;;;;;5.00;3.58;;;18.60;51.60;;;;;;4992345;28;20596;-54
2023/04/08 03:20:43;;;;;;;4.80;3.33;;;18.60;51.60;;;;;;4992454;28;20618;-55
2023/04/08 03:23:14;;;;;;;5.10;3.35;;;18.60;51.60;;;;;;4992648;28;20222;-55
2023/04/08 03:25:44;;;;;;;3.67;2.95;;;18.60;51.60;;;;;;4992737;28;20205;-54
2023/04/08 03:28:17;;;;;;;4.80;3.63;;;18.60;51.50;;;;;;4992463;28;20205;-55
2023/04/08 03:30:47;;;;;;;3.92;3.28;;;18.60;51.60;;;;;;5003676;28;20209;-54
2023/04/08 03:33:18;;;;;;;4.43;3.45;;;18.60;51.60;;;;;;5011976;28;20221;-52
2023/04/08 03:35:49;;;;;;;3.85;3.25;;;18.60;51.50;;;;;;5011375;28;20545;-55
2023/04/08 03:38:19;;;;;;;4.90;3.45;;;18.60;51.50;;;;;;5012018;28;20232;-54
2023/04/08 03:40:52;;;;;;;3.58;3.03;;;18.60;51.50;;;;;;5009810;28;20200;-53
2023/04/08 03:43:25;;;;;;;4.68;3.40;;;18.60;51.50;;;;;;5010152;28;20204;-56
2023/04/08 03:45:55;;;;;;;4.10;3.42;;;18.60;51.40;;;;;;5010662;28;20204;-55
2023/04/08 03:48:26;;;;;;;3.80;2.97;;;18.60;51.40;;;;;;5011370;28;20774;-53
2023/04/08 03:50:57;;;;;;;3.65;2.83;;;18.60;51.40;;;;;;5011098;28;20201;-54
2023/04/08 03:53:28;;;;;;;3.35;3.03;;;18.70;51.40;;;;;;5011749;28;20196;-55
2023/04/08 03:56:00;;;;;;;3.15;2.45;;;18.60;51.40;;;;;;5011443;28;20235;-53
2023/04/08 03:58:32;;;;;;;4.03;3.05;;;18.70;51.30;;;;;;5011447;28;20270;-53
2023/04/08 04:01:03;;;;;;;3.70;2.80;;;18.70;51.40;;;;;;5011983;28;20258;-54
2023/04/08 04:03:34;;;;;;;3.13;2.72;;;18.70;51.40;;;;;;5012313;28;20673;-54
2023/04/08 04:06:04;;;;;;;3.58;2.67;;;18.70;51.30;;;;;;5008187;28;20702;-52
2023/04/08 04:08:35;;;;;;;3.20;2.67;;;18.70;51.30;;;;;;5011549;28;20664;-54
2023/04/08 04:11:06;;;;;;;3.38;2.70;;;18.70;51.30;;;;;;5011695;28;20200;-51
2023/04/08 04:13:38;;;;;;;3.78;2.90;;;18.70;51.20;;;;;;4995890;28;20201;-55
2023/04/08 04:16:09;;;;;;;3.00;2.67;;;18.70;51.20;;;;;;4992024;28;20193;-50
2023/04/08 04:18:39;;;;;;;4.40;3.13;;;18.70;51.20;;;;;;4991806;28;20584;-56
2023/04/08 04:21:10;;;;;;;3.28;2.83;;;18.70;51.10;;;;;;4991850;28;20193;-53
2023/04/08 04:23:41;;;;;;;3.55;2.97;;;18.70;51.20;;;;;;4991978;28;20208;-55
2023/04/08 04:26:12;;;;;;;3.28;2.97;;;18.70;51.20;;;;;;4991672;28;20197;-53
2023/04/08 04:28:45;;;;;;;3.30;3.00;;;18.70;51.10;;;;;;4991341;28;20205;-55
2023/04/08 04:31:22;;;;;;;3.65;2.63;;;18.70;51.70;;;;;;4991618;28;20205;-52
2023/04/08 04:33:52;;;;;;;3.13;2.80;;;18.70;51.10;;;;;;4991884;28;20288;-55
2023/04/08 04:36:23;;;;;;;2.95;2.65;;;18.70;51.10;;;;;;5005646;28;20220;-54
2023/04/08 04:38:54;;;;;;;3.38;2.72;;;18.70;51.10;;;;;;5011340;28;20719;-56
2023/04/08 04:41:26;;;;;;;2.63;2.33;;;18.70;51.10;;;;;;5011815;28;20213;-52
2023/04/08 04:43:58;;;;;;;3.25;2.88;;;18.70;51.10;;;;;;5001423;28;20202;-54
2023/04/08 04:46:29;;;;;;;3.13;2.83;;;18.70;51.10;;;;;;4991368;28;20194;-54
2023/04/08 04:48:59;;;;;;;2.90;2.70;;;18.70;51.10;;;;;;4991122;28;20662;-52
2023/04/08 04:51:32;;;;;;;3.38;2.80;;;18.70;51.00;;;;;;4991351;28;20232;-55
2023/04/08 04:54:03;;;;;;;2.50;2.30;;;18.70;51.00;;;;;;4991606;28;20208;-56
2023/04/08 04:56:33;;;;;;;4.28;2.72;;;18.70;51.00;;;;;;4991586;28;20197;-56
2023/04/08 04:59:06;;;;;;;3.28;2.67;;;18.80;51.00;;;;;;4991159;28;20225;-54
2023/04/08 05:01:36;;;;;;;3.03;2.70;;;18.70;51.00;;;;;;4991184;28;20312;-54
2023/04/08 05:04:07;;;;;;;3.72;2.53;;;18.70;50.90;;;;;;4994560;28;20197;-55
2023/04/08 05:06:38;;;;;;;2.50;2.15;;;18.70;51.00;;;;;;5012683;28;20671;-52
2023/04/08 05:09:08;;;;;;;3.50;2.83;;;18.80;51.00;;;;;;5014692;28;20216;-57
2023/04/08 05:11:39;;;;;;;2.97;2.63;;;18.70;51.00;;;;;;5014525;28;20221;-52
2023/04/08 05:14:11;;;;;;;3.00;2.70;;;18.80;51.00;;;;;;5014929;28;20200;-56
2023/04/08 05:16:42;;;;;;;3.13;2.83;;;18.70;51.00;;;;;;5014775;28;20203;-54
2023/04/08 05:19:13;;;;;;;3.35;2.85;;;18.70;51.00;;;;;;5011174;28;20235;-56
2023/04/08 05:21:43;;;;;;;2.47;2.28;;;18.80;51.00;;;;;;5013912;28;20762;-56
2023/04/08 05:24:14;;;;;;;3.92;2.90;;;18.80;51.00;;;;;;5013921;28;20729;-56
2023/04/08 05:26:45;;;;;;;2.47;2.28;;;18.80;51.00;;;;;;5013915;28;20201;-52
2023/04/08 05:29:17;;;;;;;3.10;2.80;;;18.80;50.90;;;;;;5012915;28;20197;-55
2023/04/08 05:31:48;;;;;;;2.58;2.38;;;18.80;50.90;;;;;;5013580;28;20212;-51
2023/04/08 05:34:21;;;;;;;2.90;2.50;;;18.80;50.80;;;;;;5014031;28;20204;-54
2023/04/08 05:36:52;;;;;;;3.03;2.60;;;18.70;50.70;;;;;;5014263;28;20716;-55
2023/04/08 05:39:23;;;;;;;2.80;2.40;;;18.80;50.80;;;;;;5013591;28;20259;-55
2023/04/08 05:41:54;;;;;;;2.97;2.25;;;18.80;50.70;;;;;;5014469;28;20221;-54
2023/04/08 05:44:26;;;;;;;2.85;2.53;;;18.80;50.70;;;;;;5014171;28;20209;-53
2023/04/08 05:46:57;;;;;;;2.97;2.65;;;18.80;50.80;;;;;;5013698;28;20192;-56
2023/04/08 05:49:27;;;;;;;2.28;2.08;;;18.70;50.70;;;;;;5013642;28;20204;-54
2023/04/08 05:51:58;;;;;;;2.58;2.38;;;18.80;50.80;;;;;;5013484;28;20308;-55
2023/04/08 05:54:28;;;;;;;2.78;2.55;;;18.80;50.80;;;;;;5013868;28;20197;-53
2023/04/08 05:56:59;;;;;;;2.88;2.53;;;18.80;50.80;;;;;;5013660;28;20197;-55
2023/04/08 05:59:32;;;;;;;2.47;2.28;;;18.80;50.80;;;;;;5013504;28;20236;-54
2023/04/08 06:02:02;;;;;;;2.65;2.42;;;18.80;50.80;;;;;;5013528;28;20216;-56
2023/04/08 06:04:33;;;;;;;2.70;2.45;;;18.80;50.80;;;;;;5009339;28;20192;-51
2023/04/08 06:07:04;;;;;;;2.58;2.13;;;18.80;50.80;;;;;;5013241;28;20616;-55
2023/04/08 06:09:38;;;;;;;2.72;2.38;;;18.70;50.70;;;;;;5013378;28;20196;-53
2023/04/08 06:12:09;;;;;;;2.72;2.30;;;18.80;50.80;;;;;;5013598;28;20263;-54
2023/04/08 06:14:41;;;;;;;2.30;2.10;;;18.70;50.70;;;;;;5013361;28;20274;-53
2023/04/08 06:17:12;;;;;;;2.40;2.20;;;18.80;50.80;;;;;;5003792;28;20194;-57
2023/04/08 06:19:42;;;;;;;2.20;2.00;;;18.70;50.80;;;;;;4992300;28;20689;-54
2023/04/08 06:22:13;;;;;;;2.88;2.22;;;18.70;50.80;;;;;;4992790;28;20224;-55
2023/04/08 06:24:44;;;;;;;2.20;2.00;;;18.70;50.80;;;;;;4993148;28;20198;-54
2023/04/08 06:27:14;;;;;;;2.58;2.30;;;18.70;50.80;;;;;;4993768;28;20212;-54
2023/04/08 06:29:47;;;;;;;2.38;2.17;;;18.70;50.80;;;;;;4993728;28;20201;-55
2023/04/08 06:32:17;;;;;;;2.90;2.15;;;18.70;50.80;;;;;;4993541;28;20224;-52
2023/04/08 06:34:48;;;;;;;2.28;2.00;;;18.70;50.80;;;;;;4996642;28;20649;-56
2023/04/08 06:37:19;;;;;;;1.95;1.83;;;18.70;50.80;;;;;;5012878;28;20662;-55
2023/04/08 06:39:50;;;;;;;2.75;2.30;;;18.70;50.80;;;;;;5012990;28;20227;-54
2023/04/08 06:42:20;;;;;;;2.50;2.17;;;18.70;50.80;;;;;;5001634;28;20213;-56
2023/04/08 06:44:53;;;;;;;2.60;2.15;;;18.70;50.80;;;;;;4993416;28;20197;-57
2023/04/08 06:47:23;;;;;;;2.38;2.08;;;18.70;50.80;;;;;;4992932;28;20197;-54
2023/04/08 06:49:54;;;;;;;2.00;1.83;;;18.70;50.70;;;;;;4993093;28;20209;-53
2023/04/08 06:52:25;;;;;;;2.10;1.90;;;18.70;50.80;;;;;;4993021;28;20596;-57
2023/04/08 06:54:56;;;;;;;2.85;2.55;;;18.70;50.70;;;;;;4992937;28;20198;-55
2023/04/08 06:57:26;;;;;;;2.33;2.13;;;18.70;50.70;;;;;;4992671;28;20205;-51
2023/04/08 06:59:59;;;;;;;3.08;2.20;;;18.60;50.70;;;;;;4992494;28;20600;-52
2023/04/08 07:02:30;;;;;;;2.30;2.00;;;18.70;50.70;;;;;;4992851;28;20217;-52
2023/04/08 07:05:00;;;;;;;2.03;1.83;;;18.60;50.70;;;;;;4997515;28;20201;-57
2023/04/08 07:07:31;;;;;;;2.35;2.15;;;18.60;50.70;;;;;;5012805;28;20197;-53
2023/04/08 07:10:02;;;;;;;2.72;2.17;;;18.60;50.70;;;;;;5013118;28;20200;-52
2023/04/08 07:12:32;;;;;;;3.45;2.47;;;18.60;50.80;;;;;;5008054;28;20213;-56
2023/04/08 07:15:05;;;;;;;2.75;2.00;;;18.60;50.80;;;;;;5010423;28;20200;-54
2023/04/08 07:17:35;;;;;;;3.50;2.03;;;18.60;50.70;;;;;;5011984;28;20243;-51
2023/04/08 07:20:06;;;;;;;2.30;2.03;;;18.60;50.80;;;;;;5011964;28;20231;-54
2023/04/08 07:22:37;;;;;;;2.80;2.35;;;18.60;50.80;;;;;;5011863;28;20213;-53
2023/04/08 07:25:08;;;;;;;2.85;2.40;;;18.60;50.80;;;;;;5011408;28;20209;-56
2023/04/08 07:27:39;;;;;;;2.17;1.85;;;18.60;50.70;;;;;;5012074;28;20197;-55
2023/04/08 07:30:12;;;;;;;2.75;1.98;;;18.60;50.70;;;;;;5011857;28;20208;-52
2023/04/08 07:32:43;;;;;;;2.25;2.05;;;18.60;50.70;;;;;;5011934;28;20217;-54
2023/04/08 07:35:13;;;;;;;2.42;2.00;;;18.60;50.70;;;;;;5012008;28;20208;-54
2023/04/08 07:37:44;;;;;;;2.10;1.90;;;18.60;50.70;;;;;;5010954;28;20653;-50
2023/04/08 07:40:15;;;;;;;2.00;1.80;;;18.60;50.70;;;;;;5011544;28;20235;-55
2023/04/08 07:42:45;;;;;;;2.20;2.00;;;18.60;50.70;;;;;;5012101;28;20719;-53
2023/04/08 07:45:18;;;;;;;2.55;2.00;;;18.50;50.60;;;;;;5011685;28;20199;-54
2023/04/08 07:47:49;;;;;;;2.13;1.90;;;18.50;50.60;;;;;;5011886;28;20197;-50
2023/04/08 07:50:19;;;;;;;2.22;2.03;;;18.50;50.70;;;;;;5011480;28;20193;-54
2023/04/08 07:52:52;;;;;;;2.38;1.90;;;18.50;50.70;;;;;;5011651;28;21011;-52
2023/04/08 07:55:22;;;;;;;2.08;1.88;;;18.50;50.70;;;;;;5011374;28;20192;-56
2023/04/08 07:57:53;;;;;;;2.20;1.80;;;18.50;50.70;;;;;;5011168;28;20203;-53
2023/04/08 08:00:26;;;;;;;2.20;1.77;;;18.50;50.70;;;;;;5011148;28;20228;-56
2023/04/08 08:02:56;;;;;;;2.08;1.77;;;18.50;50.70;;;;;;5010541;28;20220;-53
2023/04/08 08:05:27;;;;;;;2.25;2.03;;;18.50;50.70;;;;;;5004327;28;20203;-56
2023/04/08 08:07:58;;;;;;;1.88;1.73;;;18.50;50.60;;;;;;5010949;28;20197;-55
2023/04/08 08:10:28;;;;;;;2.03;1.83;;;18.50;50.70;;;;;;5011095;28;20237;-55
2023/04/08 08:12:59;;;;;;;2.05;1.80;;;18.50;50.70;;;;;;5011598;28;20216;-55
2023/04/08 08:15:31;;;;;;;2.03;1.63;;;18.50;50.70;;;;;;5011621;28;20197;-55
2023/04/08 08:18:02;;;;;;;3.85;2.10;;;18.50;50.70;;;;;;5011706;28;20215;-53
2023/04/08 08:20:33;;;;;;;1.90;1.70;;;18.50;50.70;;;;;;5000579;28;20631;-52
2023/04/08 08:23:03;;;;;;;2.25;2.05;;;18.50;50.70;;;;;;4991829;28;20217;-52
2023/04/08 08:25:34;;;;;;;2.05;1.85;;;18.40;50.70;;;;;;4991929;28;20193;-51
2023/04/08 08:28:04;;;;;;;2.92;2.28;;;18.40;50.60;;;;;;4991368;28;20608;-54
2023/04/08 08:30:37;;;;;;;1.80;1.70;;;18.40;50.60;;;;;;4991159;28;20618;-56
2023/04/08 08:33:08;;;;;;;1.92;1.73;;;18.40;50.60;;;;;;4991069;28;20291;-51
2023/04/08 08:35:38;;;;;;;1.90;1.75;;;18.40;50.70;;;;;;4999734;28;20204;-51
2023/04/08 08:38:09;;;;;;;2.53;1.90;;;18.40;50.60;;;;;;4993148;28;20201;-53
2023/04/08 08:40:39;;;;;;;2.55;1.98;;;18.40;50.70;;;;;;4995389;28;20284;-51
2023/04/08 08:43:10;;;;;;;2.10;1.70;;;18.40;50.70;;;;;;4995684;28;20232;-57
2023/04/08 08:45:44;;;;;;;2.00;1.75;;;18.40;50.60;;;;;;4995462;28;20198;-56
2023/04/08 08:48:15;;;;;;;1.75;1.65;;;18.40;50.60;;;;;;4995190;28;20201;-53
2023/04/08 08:50:46;;;;;;;1.80;1.60;;;18.40;50.60;;;;;;4995050;28;20202;-56
2023/04/08 08:53:16;;;;;;;1.92;1.73;;;18.30;50.60;;;;;;4994854;28;20214;-54
2023/04/08 08:55:47;;;;;;;2.17;1.80;;;18.40;50.60;;;;;;4993409;28;20209;-51
2023/04/08 08:58:18;;;;;;;1.63;1.52;;;18.40;50.70;;;;;;4994866;28;20201;-56
2023/04/08 09:00:50;;;;;;;2.30;1.73;;;18.30;50.70;;;;;;4995060;28;20232;-52
2023/04/08 09:03:23;;;;;;;1.92;1.45;;;18.40;50.70;;;;;;4995377;28;20221;-54
2023/04/08 09:05:54;;;;;;;1.60;1.50;;;18.30;50.60;;;;;;5007302;28;20620;-55
2023/04/08 09:08:29;;;;;;;2.08;1.63;;;18.40;50.60;;;;;;5014606;28;20592;-55
2023/04/08 09:11:14;;;;;;;1.63;1.52;;;18.30;50.60;;;;;;5014930;28;20204;-54
2023/04/08 09:13:45;;;;;;;2.30;1.60;;;18.30;50.50;;;;;;5014989;28;20267;-56
2023/04/08 09:16:19;;;;;;;2.35;1.92;;;18.40;50.60;;;;;;5014624;28;20632;-50
2023/04/08 09:18:51;;;;;;;2.10;1.55;;;18.30;50.60;;;;;;5013813;28;20208;-56
2023/04/08 09:21:26;;;;;;;2.05;1.73;;;18.30;50.60;;;;;;5011519;28;20189;-55
2023/04/08 09:23:56;;;;;;;2.47;1.80;;;18.30;51.20;;;;;;4994678;28;20201;-51
2023/04/08 09:26:27;;;;;;;2.22;1.75;;;18.30;50.60;;;;;;4994415;28;20202;-55
2023/04/08 09:29:02;;;;;;;1.73;1.50;;;18.30;50.60;;;;;;4994375;28;20240;-56
2023/04/08 09:31:37;;;;;;;2.28;1.65;;;18.30;50.60;;;;;;4994393;28;20201;-55
2023/04/08 09:34:14;;;;;;;2.42;1.48;;;18.30;50.60;;;;;;4994316;28;20559;-55
2023/04/08 09:36:45;;;;;;;1.70;1.60;;;18.30;50.60;;;;;;5013285;28;20205;-55
2023/04/08 09:39:15;;;;;;;1.50;1.40;;;18.30;50.50;;;;;;5013999;28;20311;-52
2023/04/08 09:41:49;;;;;;;2.28;1.80;;;18.20;50.50;;;;;;5014501;28;20685;-55
2023/04/08 09:44:21;;;;;;;3.55;1.90;;;18.20;50.60;;;;;;5013458;28;20247;-54
2023/04/08 09:47:02;;;;;;;2.05;1.75;;;18.20;50.50;;;;;;5012866;28;20189;-53
2023/04/08 09:49:39;;;;;;;1.58;1.42;;;18.20;50.50;;;;;;5012571;28;20680;-57
2023/04/08 09:52:12;;;;;;;1.85;1.60;;;18.20;50.50;;;;;;5013146;28;20217;-56
2023/04/08 09:54:51;;;;;;;1.63;1.33;;;18.20;50.50;;;;;;5013368;28;20653;-56
2023/04/08 09:57:38;;;;;;;1.77;1.67;;;18.20;50.60;;;;;;5014028;28;20201;-53
2023/04/08 10:00:14;;;;;;;1.92;1.70;;;18.20;50.50;;;;;;5013917;28;20232;-56
2023/04/08 10:02:55;;;;;;;1.60;1.30;;;18.20;50.50;;;;;;5012064;28;20223;-56
2023/04/08 10:05:27;;;;;;;1.92;1.35;;;18.20;50.50;;;;;;5002169;28;20215;-53
2023/04/08 10:07:59;;;;;;;2.30;1.70;;;18.20;50.50;;;;;;5013613;28;20204;-53
2023/04/08 10:10:30;;;;;;;1.40;1.25;;;18.20;50.50;;;;;;5013567;28;20226;-53
2023/04/08 10:13:01;;;;;;;1.55;1.45;;;18.20;50.50;;;;;;5013841;28;20216;-55
2023/04/08 10:15:32;;;;;;;2.00;1.60;;;18.20;50.50;;;;;;5013107;28;20849;-55
2023/04/08 10:18:35;;;;;;;1.67;1.40;;;18.10;50.50;;;;;;5013243;28;20201;-53
2023/04/08 10:21:06;;;;;;;1.70;1.48;;;18.10;50.50;;;;;;5013129;28;20697;-56
2023/04/08 10:23:59;;;;;;;1.83;1.65;;;18.10;50.50;;;;;;5013359;28;20228;-53
2023/04/08 10:26:38;;;;;;;1.50;1.40;;;18.10;50.50;;;;;;5013593;28;20197;-50
2023/04/08 10:29:45;;;;;;;1.27;1.17;;;18.10;50.50;;;;;;5006679;28;20194;-55
2023/04/08 10:32:32;;;;;;;1.50;1.40;;;18.10;50.50;;;;;;4991474;28;20220;-52
2023/04/08 10:35:04;;;;;;;1.20;1.05;;;18.10;50.40;;;;;;4998240;28;20594;-55
2023/04/08 10:37:35;;;;;;;1.45;1.30;;;18.10;50.50;;;;;;5012456;28;20197;-52
2023/04/08 10:40:08;;;;;;;1.55;1.45;;;18.10;50.50;;;;;;5002124;28;20225;-54
2023/04/08 10:42:39;;;;;;;1.60;1.40;;;18.10;50.50;;;;;;4993585;28;20283;-55
2023/04/08 10:45:11;;;;;;;1.60;1.50;;;18.10;50.50;;;;;;4993051;28;20297;-52
2023/04/08 10:47:41;;;;;;;2.63;1.65;;;18.10;50.50;;;;;;4992541;28;20204;-53
2023/04/08 10:50:22;;;;;;;1.27;1.17;;;18.10;50.50;;;;;;4992730;28;20228;-55
2023/04/08 10:52:53;;;;;;;1.63;1.50;;;18.10;50.40;;;;;;4992980;28;20872;-56
2023/04/08 10:55:26;;;;;;;2.25;1.50;;;18.10;50.40;;;;;;4992933;28;20670;-51
2023/04/08 10:58:08;;;;;;;1.30;1.20;;;18.10;50.50;;;;;;4993212;28;20201;-52
2023/04/08 11:00:40;;;;;;;1.92;1.40;;;18.00;50.40;;;;;;4992141;28;20595;-53
2023/04/08 11:03:12;;;;;;;1.60;1.33;;;18.10;50.50;;;;;;4993013;28;20221;-51
2023/04/08 11:05:44;;;;;;;2.45;1.40;;;18.10;50.50;;;;;;5003656;28;20236;-54
2023/04/08 11:08:16;;;;;;;1.25;1.10;;;18.10;50.50;;;;;;5012321;28;20677;-52
2023/04/08 11:10:48;;;;;;;1.65;1.35;;;18.00;50.40;;;;;;5012481;28;20205;-56
2023/04/08 11:13:19;;;;;;;2.40;1.65;;;18.00;50.40;;;;;;5012542;28;20224;-53
2023/04/08 11:15:50;;;;;;;1.42;1.33;;;18.00;50.40;;;;;;5012415;28;20204;-54
2023/04/08 11:18:20;;;;;;;1.67;1.58;;;18.00;50.40;;;;;;5008540;28;20193;-53
2023/04/08 11:20:53;;;;;;;1.70;1.50;;;18.00;50.40;;;;;;5011967;28;20217;-56
2023/04/08 11:23:26;;;;;;;2.00;1.60;;;18.00;50.40;;;;;;5012183;28;20279;-56
2023/04/08 11:25:57;;;;;;;2.55;1.95;;;18.00;50.40;;;;;;5012342;28;20791;-56
2023/04/08 11:28:28;;;;;;;1.65;1.40;;;18.00;50.30;;;;;;5012308;28;20204;-55
2023/04/08 11:30:59;;;;;;;2.20;1.42;;;18.00;50.30;;;;;;5010202;28;20208;-52
2023/04/08 11:33:32;;;;;;;2.03;1.83;;;18.00;50.30;;;;;;5011506;28;20216;-54
2023/04/08 11:36:05;;;;;;;1.60;1.40;;;18.00;50.40;;;;;;5011411;28;20212;-51
2023/04/08 11:38:40;;;;;;;1.90;1.50;;;18.00;50.30;;;;;;5011353;28;20232;-53
2023/04/08 11:41:12;;;;;;;1.60;1.50;;;18.00;50.40;;;;;;5011597;28;20331;-51
2023/04/08 11:43:52;;;;;;;1.85;1.30;;;18.00;50.40;;;;;;5012204;28;20255;-53
2023/04/08 11:46:22;;;;;;;2.00;1.55;;;17.90;50.30;;;;;;5011918;28;20199;-53
2023/04/08 11:49:07;;;;;;;1.90;1.30;;;17.90;50.30;;;;;;5011915;28;20205;-52
2023/04/08 11:51:57;;;;;;;1.65;1.30;;;17.90;50.40;;;;;;5011656;28;20708;-56
2023/04/08 11:54:32;;;;;;;1.92;1.42;;;17.90;50.30;;;;;;5011982;28;20201;-55
2023/04/08 11:57:02;;;;;;;1.58;1.48;;;17.90;50.30;;;;;;5011754;28;20196;-53
2023/04/08 11:59:33;;;;;;;2.22;1.55;;;17.90;50.30;;;;;;5011070;28;20216;-53
2023/04/08 12:02:04;;;;;;;1.98;1.23;;;17.90;50.30;;;;;;5011050;28;20220;-55
2023/04/08 12:04:35;;;;;;;2.05;1.73;;;17.90;50.30;;;;;;5011349;28;20197;-51
2023/04/08 12:07:07;;;;;;;1.67;1.58;;;17.90;50.30;;;;;;5011440;28;20331;-55
2023/04/08 12:09:38;;;;;;;1.73;1.40;;;17.80;50.30;;;;;;5011390;28;20205;-54
2023/04/08 12:12:09;;;;;;;1.63;1.38;;;17.80;50.30;;;;;;5009976;28;20622;-55
2023/04/08 12:14:40;;;;;;;1.20;1.10;;;17.80;50.30;;;;;;5015538;28;20192;-53
2023/04/08 12:17:11;;;;;;;1.52;1.40;;;17.80;50.30;;;;;;5015600;28;20208;-53
2023/04/08 12:19:42;;;;;;;1.50;1.30;;;17.80;50.30;;;;;;5015656;28;20232;-54
2023/04/08 12:22:15;;;;;;;1.77;1.60;;;17.80;50.30;;;;;;5014316;28;20273;-56
2023/04/08 12:24:45;;;;;;;1.42;1.33;;;17.80;50.30;;;;;;5014461;28;20203;-54
2023/04/08 12:27:16;;;;;;;1.60;1.50;;;17.80;50.30;;;;;;5015539;28;20207;-55
2023/04/08 12:29:48;;;;;;;1.50;1.30;;;17.80;50.30;;;;;;5015119;28;20200;-52
2023/04/08 12:32:19;;;;;;;1.52;1.42;;;17.80;50.30;;;;;;5015317;28;20244;-54
2023/04/08 12:34:50;;;;;;;1.40;1.30;;;17.70;50.20;;;;;;5015392;28;20211;-54
2023/04/08 12:37:22;;;;;;;1.50;1.33;;;17.70;50.30;;;;;;5005276;28;20198;-56
2023/04/08 12:39:53;;;;;;;1.63;1.33;;;17.70;50.30;;;;;;4995828;28;20194;-55
2023/04/08 12:42:24;;;;;;;1.50;1.33;;;17.70;50.20;;;;;;4995766;28;20228;-53
2023/04/08 12:44:55;;;;;;;1.88;1.30;;;17.70;50.30;;;;;;4994958;28;20201;-56
2023/04/08 12:47:25;;;;;;;1.40;1.30;;;17.70;50.30;;;;;;4995606;28;20251;-55
2023/04/08 12:49:56;;;;;;;2.90;1.70;;;17.70;50.30;;;;;;5010385;28;20193;-53
2023/04/08 12:52:28;;;;;;;1.27;1.17;;;17.70;50.30;;;;;;5015033;28;20227;-56
2023/04/08 12:54:59;;;;;;;1.65;1.42;;;17.60;50.20;;;;;;5015299;28;20255;-56
2023/04/08 12:57:30;;;;;;;1.98;1.20;;;17.60;50.20;;;;;;5015250;28;20197;-56
2023/04/08 13:00:01;;;;;;;1.70;1.30;;;17.60;50.20;;;;;;5015238;28;20193;-56
2023/04/08 13:02:33;;;;;;;2.10;1.50;;;17.60;50.20;;;;;;5014372;28;20224;-56
2023/04/08 13:05:04;;;;;;;1.67;1.27;;;17.60;50.20;;;;;;5014302;28;20605;-55
2023/04/08 13:07:36;;;;;;;1.52;1.42;;;17.60;50.20;;;;;;5014303;28;20192;-55
2023/04/08 13:10:07;;;;;;;1.67;1.30;;;17.60;50.20;;;;;;5014460;28;20201;-55
2023/04/08 13:12:39;;;;;;;1.35;1.00;;;17.60;50.20;;;;;;5014607;28;20640;-54